createdAt,value
2022-12-29T00:02:15.286Z,75.78
2022-12-29T00:04:42.464Z,75.69
2022-12-29T00:07:09.488Z,75.77
2022-12-29T00:09:38.277Z,75.97
2022-12-29T00:12:06.030Z,75.61
2022-12-29T00:14:51.779Z,75.37
2022-12-29T00:17:18.934Z,75.59
2022-12-29T00:20:04.596Z,75.38
2022-12-29T00:22:51.645Z,75.39
2022-12-29T00:25:37.435Z,75.24
2022-12-29T00:28:23.160Z,75.42
2022-12-29T00:31:08.859Z,75.51
2022-12-29T00:33:58.094Z,75.33
2022-12-29T00:36:31.200Z,75.25
2022-12-29T00:39:21.852Z,75.63
2022-12-29T00:42:08.243Z,75.34
2022-12-29T00:44:35.364Z,75.35
2022-12-29T00:47:05.984Z,75.46
2022-12-29T00:49:34.277Z,75.49
2022-12-29T00:52:07.328Z,75.20
2022-12-29T00:54:37.127Z,75.25
2022-12-29T00:57:06.175Z,75.49
2022-12-29T00:59:37.445Z,75.33
2022-12-29T01:02:05.670Z,75.22
2022-12-29T01:04:33.135Z,75.49
2022-12-29T01:07:00.227Z,75.35
2022-12-29T01:09:45.732Z,75.21
2022-12-29T01:12:12.936Z,75.50
2022-12-29T01:14:40.437Z,75.07
2022-12-29T01:17:07.534Z,74.91
2022-12-29T01:19:34.737Z,75.05
2022-12-29T01:22:01.734Z,75.46
2022-12-29T01:24:29.171Z,74.95
2022-12-29T01:26:56.205Z,75.07
2022-12-29T01:29:23.602Z,74.79
2022-12-29T01:31:51.211Z,74.92
2022-12-29T01:34:19.165Z,75.07
2022-12-29T01:36:46.454Z,75.03
2022-12-29T01:39:14.344Z,74.86
2022-12-29T01:41:42.808Z,74.72
2022-12-29T01:44:47.428Z,74.69
2022-12-29T01:47:24.610Z,74.95
2022-12-29T01:49:55.224Z,74.72
2022-12-29T01:52:25.456Z,74.89
2022-12-29T01:54:56.280Z,75.13
2022-12-29T01:57:29.873Z,74.82
2022-12-29T02:00:09.715Z,75.23
2022-12-29T02:02:55.084Z,74.92
2022-12-29T02:05:40.604Z,74.78
2022-12-29T02:08:09.423Z,74.74
2022-12-29T02:10:37.231Z,75.19
2022-12-29T02:13:04.642Z,74.89
2022-12-29T02:16:16.606Z,75.20
2022-12-29T02:19:21.296Z,74.73
2022-12-29T02:21:57.364Z,75.10
2022-12-29T02:24:52.122Z,74.88
2022-12-29T02:27:25.138Z,74.93
2022-12-29T02:30:37.302Z,75.14
2022-12-29T02:33:25.650Z,74.94
2022-12-29T02:36:35.602Z,75.19
2022-12-29T02:39:10.786Z,75.16
2022-12-29T02:42:08.411Z,75.02
2022-12-29T02:44:44.411Z,74.99
2022-12-29T02:47:45.101Z,74.82
2022-12-29T02:50:24.924Z,74.72
2022-12-29T02:52:59.461Z,75.02
2022-12-29T02:55:26.747Z,74.80
2022-12-29T02:58:20.886Z,74.96
2022-12-29T03:01:24.637Z,75.00
2022-12-29T03:04:19.425Z,75.11
2022-12-29T03:07:09.749Z,75.16
2022-12-29T03:10:01.332Z,75.22
2022-12-29T03:13:03.273Z,75.34
2022-12-29T03:16:04.503Z,75.21
2022-12-29T03:19:11.816Z,75.41
2022-12-29T03:22:01.174Z,75.35
2022-12-29T03:24:39.410Z,75.35
2022-12-29T03:27:10.379Z,75.48
2022-12-29T03:29:46.615Z,75.59
2022-12-29T03:32:16.379Z,75.02
2022-12-29T03:34:46.248Z,75.12
2022-12-29T03:37:17.920Z,75.47
2022-12-29T03:39:46.432Z,75.30
2022-12-29T03:42:18.767Z,75.37
2022-12-29T03:44:47.198Z,75.52
2022-12-29T03:47:16.375Z,75.32
2022-12-29T03:49:45.910Z,75.23
2022-12-29T03:52:12.913Z,75.07
2022-12-29T03:54:43.797Z,75.33
2022-12-29T03:57:12.170Z,75.31
2022-12-29T03:59:52.636Z,75.41
2022-12-29T04:02:19.899Z,75.11
2022-12-29T04:04:47.732Z,75.12
2022-12-29T04:07:14.779Z,75.21
2022-12-29T04:09:42.951Z,75.02
2022-12-29T04:12:15.493Z,75.06
2022-12-29T04:14:42.676Z,75.12
2022-12-29T04:17:09.771Z,74.86
2022-12-29T04:19:36.827Z,75.10
2022-12-29T04:22:04.331Z,74.91
2022-12-29T04:24:31.570Z,75.18
2022-12-29T04:27:00.399Z,74.84
2022-12-29T04:29:58.431Z,74.94
2022-12-29T04:32:45.741Z,74.60
2022-12-29T04:35:12.823Z,75.06
2022-12-29T04:37:40.516Z,74.78
2022-12-29T04:40:08.213Z,74.73
2022-12-29T04:42:35.158Z,74.64
2022-12-29T04:45:03.292Z,75.02
2022-12-29T04:47:38.120Z,75.12
2022-12-29T04:50:23.487Z,74.83
2022-12-29T04:53:18.306Z,74.76
2022-12-29T04:55:57.905Z,74.67
2022-12-29T04:58:24.855Z,75.15
2022-12-29T05:00:53.882Z,74.87
2022-12-29T05:03:25.171Z,74.73
2022-12-29T05:05:56.225Z,74.86
2022-12-29T05:08:28.025Z,74.78
2022-12-29T05:10:56.678Z,74.80
2022-12-29T05:13:23.642Z,74.83
2022-12-29T05:15:54.555Z,75.01
2022-12-29T05:18:23.598Z,75.07
2022-12-29T05:20:50.746Z,75.02
2022-12-29T05:23:19.530Z,74.92
2022-12-29T05:25:52.112Z,75.22
2022-12-29T05:28:40.598Z,74.53
2022-12-29T05:31:14.291Z,74.97
2022-12-29T05:33:41.481Z,74.81
2022-12-29T05:36:10.363Z,75.08
2022-12-29T05:38:41.065Z,75.09
2022-12-29T05:41:09.024Z,75.26
2022-12-29T05:44:02.657Z,74.80
2022-12-29T05:46:33.890Z,74.70
2022-12-29T05:49:27.184Z,74.36
2022-12-29T05:52:09.788Z,74.86
2022-12-29T05:54:37.493Z,74.78
2022-12-29T05:57:11.505Z,74.67
2022-12-29T05:59:40.024Z,75.06
2022-12-29T06:02:07.428Z,74.85
2022-12-29T06:04:35.556Z,74.75
2022-12-29T06:07:03.169Z,74.79
2022-12-29T06:09:40.249Z,74.72
2022-12-29T06:12:09.336Z,74.89
2022-12-29T06:14:38.264Z,74.64
2022-12-29T06:17:05.662Z,74.85
2022-12-29T06:19:33.570Z,74.90
2022-12-29T06:22:00.621Z,74.78
2022-12-29T06:24:36.171Z,74.52
2022-12-29T06:27:03.636Z,74.36
2022-12-29T06:29:30.876Z,74.38
2022-12-29T06:31:59.425Z,74.42
2022-12-29T06:34:30.482Z,74.55
2022-12-29T06:36:57.468Z,74.39
2022-12-29T06:39:24.452Z,74.86
2022-12-29T06:42:02.395Z,75.06
2022-12-29T06:44:47.268Z,74.75
2022-12-29T06:47:14.379Z,74.82
2022-12-29T06:49:44.203Z,74.61
2022-12-29T06:52:27.053Z,74.31
2022-12-29T06:54:55.773Z,74.54
2022-12-29T06:57:23.090Z,74.60
2022-12-29T06:59:50.137Z,74.54
2022-12-29T07:02:21.077Z,74.28
2022-12-29T07:04:48.395Z,74.30
2022-12-29T07:07:18.702Z,74.03
2022-12-29T07:09:46.148Z,73.89
2022-12-29T07:12:13.357Z,74.03
2022-12-29T07:14:43.480Z,73.56
2022-12-29T07:17:10.956Z,73.97
2022-12-29T07:19:37.923Z,74.04
2022-12-29T07:22:05.091Z,73.84
2022-12-29T07:24:32.228Z,73.84
2022-12-29T07:27:03.621Z,73.65
2022-12-29T07:29:38.718Z,73.71
2022-12-29T07:32:06.545Z,73.86
2022-12-29T07:34:33.645Z,74.00
2022-12-29T07:37:09.492Z,73.55
2022-12-29T07:39:36.528Z,74.01
2022-12-29T07:42:06.061Z,73.95
2022-12-29T07:44:42.595Z,73.42
2022-12-29T07:47:35.739Z,72.93
2022-12-29T07:50:03.308Z,73.60
2022-12-29T07:52:31.207Z,73.25
2022-12-29T07:55:09.954Z,73.44
2022-12-29T07:57:36.911Z,73.57
2022-12-29T08:00:04.874Z,73.47
2022-12-29T08:02:39.306Z,72.99
2022-12-29T08:05:07.043Z,72.58
2022-12-29T08:07:34.189Z,72.65
2022-12-29T08:10:06.004Z,72.62
2022-12-29T08:13:07.225Z,72.19
2022-12-29T08:16:11.944Z,73.00
2022-12-29T08:18:40.213Z,72.91
2022-12-29T08:21:07.719Z,72.94
2022-12-29T08:24:05.440Z,72.59
2022-12-29T08:27:17.982Z,72.86
2022-12-29T08:30:14.964Z,72.63
2022-12-29T08:33:08.954Z,73.26
2022-12-29T08:35:36.107Z,73.29
2022-12-29T08:38:28.092Z,72.78
2022-12-29T08:45:13.891Z,72.67
2022-12-29T08:47:41.068Z,72.61
2022-12-29T08:50:08.689Z,72.74
2022-12-29T08:52:52.428Z,72.61
2022-12-29T09:06:40.270Z,71.53
2022-12-29T09:09:04.060Z,72.31
2022-12-29T09:11:39.864Z,72.50
2022-12-29T09:14:15.220Z,71.59
2022-12-29T09:17:07.443Z,72.04
2022-12-29T09:19:38.076Z,71.95
2022-12-29T09:22:32.430Z,71.07
2022-12-29T09:27:45.041Z,71.90
2022-12-29T09:30:18.405Z,71.83
2022-12-29T09:32:47.010Z,72.06
2022-12-29T09:35:23.742Z,72.36
2022-12-29T09:37:51.156Z,72.41
2022-12-29T09:40:53.911Z,71.66
2022-12-29T09:43:31.188Z,71.53
2022-12-29T09:46:05.801Z,72.51
2022-12-29T09:48:46.807Z,72.19
2022-12-29T09:51:25.248Z,72.11
2022-12-29T09:54:22.819Z,72.30
2022-12-29T09:56:54.361Z,72.47
2022-12-29T10:00:11.750Z,71.36
2022-12-29T10:11:13.712Z,71.98
2022-12-29T10:15:11.251Z,72.93
2022-12-29T10:18:14.186Z,72.33
2022-12-29T10:22:18.616Z,71.83
2022-12-29T10:25:41.165Z,71.76
2022-12-29T10:29:24.424Z,71.73
2022-12-29T10:32:11.849Z,71.79
2022-12-29T10:42:25.564Z,72.64
2022-12-29T10:45:39.231Z,71.38
2022-12-29T11:01:44.918Z,71.80
2022-12-29T11:25:21.377Z,71.54
2022-12-29T11:28:15.310Z,70.75
2022-12-29T11:30:43.943Z,71.43
2022-12-29T11:38:03.797Z,70.74
2022-12-29T11:41:18.402Z,70.84
2022-12-29T11:56:29.265Z,71.37
2022-12-29T11:59:28.807Z,71.27
2022-12-29T12:02:01.323Z,71.39
2022-12-29T12:04:35.750Z,71.75
2022-12-29T12:07:12.108Z,71.74
2022-12-29T12:10:06.622Z,71.68
2022-12-29T12:12:41.776Z,71.49
2022-12-29T12:15:57.104Z,71.75
2022-12-29T12:18:40.796Z,71.97
2022-12-29T12:21:46.117Z,71.91
2022-12-29T12:25:05.024Z,72.26
2022-12-29T12:29:14.227Z,72.08
2022-12-29T12:32:26.840Z,72.40
2022-12-29T12:35:02.282Z,72.05
2022-12-29T12:38:15.346Z,72.38
2022-12-29T12:41:22.245Z,72.00
2022-12-29T12:44:42.536Z,71.85
2022-12-29T12:47:31.355Z,72.39
2022-12-29T12:50:18.528Z,72.74
2022-12-29T12:53:31.619Z,72.65
2022-12-29T12:56:20.369Z,72.68
2022-12-29T12:58:55.445Z,72.91
2022-12-29T13:02:17.491Z,72.53
2022-12-29T13:05:26.194Z,72.72
2022-12-29T13:09:00.890Z,72.79
2022-12-29T13:11:53.248Z,72.56
2022-12-29T13:14:49.094Z,72.60
2022-12-29T13:17:25.422Z,73.07
2022-12-29T13:20:11.447Z,72.81
2022-12-29T13:22:49.144Z,72.78
2022-12-29T13:26:12.061Z,72.50
2022-12-29T13:32:59.079Z,72.80
2022-12-29T13:36:14.102Z,72.56
2022-12-29T13:39:04.956Z,72.76
2022-12-29T13:42:20.396Z,72.45
2022-12-29T13:45:05.211Z,72.67
2022-12-29T13:48:50.181Z,72.91
2022-12-29T13:51:28.515Z,72.64
2022-12-29T13:54:44.975Z,72.89
2022-12-29T14:01:24.633Z,72.89
2022-12-29T14:04:06.745Z,72.83
2022-12-29T14:06:43.740Z,72.82
2022-12-29T14:10:00.980Z,72.50
2022-12-29T14:12:54.452Z,72.27
2022-12-29T14:15:48.933Z,72.44
2022-12-29T14:21:31.553Z,72.86
2022-12-29T14:24:34.093Z,72.49
2022-12-29T14:27:10.780Z,72.22
2022-12-29T14:29:41.037Z,72.75
2022-12-29T14:32:26.723Z,72.44
2022-12-29T14:35:00.594Z,73.20
2022-12-29T14:37:31.748Z,72.68
2022-12-29T14:40:28.362Z,72.29
2022-12-29T14:42:57.916Z,72.77
2022-12-29T14:45:38.587Z,72.13
2022-12-29T14:48:39.561Z,72.03
2022-12-29T14:51:32.265Z,72.40
2022-12-29T14:54:41.920Z,72.41
2022-12-29T14:57:24.823Z,72.44
2022-12-29T15:00:09.581Z,72.58
2022-12-29T15:02:44.863Z,72.60
2022-12-29T15:05:36.281Z,72.44
2022-12-29T15:08:13.495Z,72.44
2022-12-29T15:11:04.098Z,72.69
2022-12-29T15:14:43.777Z,71.80
2022-12-29T15:21:25.696Z,72.37
2022-12-29T15:23:57.774Z,72.54
2022-12-29T15:26:48.902Z,72.20
2022-12-29T15:29:38.487Z,72.50
2022-12-29T15:32:17.034Z,72.24
2022-12-29T15:34:59.347Z,72.46
2022-12-29T15:37:38.318Z,72.44
2022-12-29T15:40:06.590Z,72.39
2022-12-29T15:42:59.899Z,72.58
2022-12-29T15:45:37.149Z,72.44
2022-12-29T15:48:12.836Z,72.49
2022-12-29T15:50:44.305Z,72.38
2022-12-29T15:53:21.799Z,72.77
2022-12-29T15:55:57.102Z,72.89
2022-12-29T15:58:31.097Z,72.64
2022-12-29T16:01:01.586Z,72.35
2022-12-29T16:03:34.026Z,72.68
2022-12-29T16:06:12.938Z,72.28
2022-12-29T16:08:42.020Z,72.48
2022-12-29T16:11:28.920Z,72.46
2022-12-29T16:13:57.292Z,72.19
2022-12-29T16:16:36.720Z,72.73
2022-12-29T16:19:23.620Z,72.09
2022-12-29T16:21:51.381Z,72.19
2022-12-29T16:24:24.462Z,72.38
2022-12-29T16:27:14.507Z,72.34
2022-12-29T16:29:44.267Z,72.60
2022-12-29T16:32:32.361Z,72.09
2022-12-29T16:35:22.108Z,72.55
2022-12-29T16:38:18.140Z,72.03
2022-12-29T16:41:09.865Z,72.55
2022-12-29T16:43:45.765Z,72.46
2022-12-29T16:46:24.154Z,72.86
2022-12-29T16:48:55.663Z,72.88
2022-12-29T16:51:33.278Z,72.79
2022-12-29T16:54:01.700Z,72.62
2022-12-29T16:56:33.957Z,72.67
2022-12-29T16:59:31.658Z,72.61
2022-12-29T17:02:02.388Z,72.68
2022-12-29T17:05:09.898Z,72.34
2022-12-29T17:07:37.229Z,72.73
2022-12-29T17:10:12.391Z,72.31
2022-12-29T17:13:13.480Z,72.61
2022-12-29T17:15:39.044Z,72.87
2022-12-29T17:18:38.936Z,72.65
2022-12-29T17:21:15.075Z,72.49
2022-12-29T17:23:47.999Z,72.28
2022-12-29T17:29:43.198Z,72.71
2022-12-29T17:33:01.153Z,72.56
2022-12-29T17:35:29.147Z,72.90
2022-12-29T17:37:56.350Z,72.41
2022-12-29T17:40:56.811Z,72.52
2022-12-29T17:47:52.353Z,72.34
2022-12-29T17:50:24.560Z,72.56
2022-12-29T17:53:01.011Z,72.45
2022-12-29T17:55:38.283Z,72.74
2022-12-29T17:58:19.779Z,72.60
2022-12-29T18:00:58.075Z,72.77
2022-12-29T18:03:27.976Z,72.79
2022-12-29T18:05:55.786Z,73.04
2022-12-29T18:08:22.959Z,72.59
2022-12-29T18:10:54.075Z,72.75
2022-12-29T18:13:37.315Z,73.13
2022-12-29T18:16:14.856Z,72.66
2022-12-29T18:18:42.814Z,72.89
2022-12-29T18:21:20.730Z,73.04
2022-12-29T18:23:51.129Z,73.09
2022-12-29T18:26:31.803Z,73.22
2022-12-29T18:28:59.517Z,72.93
2022-12-29T18:31:29.637Z,73.27
2022-12-29T18:33:58.796Z,72.93
2022-12-29T18:36:27.326Z,73.00
2022-12-29T18:38:55.014Z,72.46
2022-12-29T18:41:32.457Z,73.10
2022-12-29T18:44:02.227Z,73.23
2022-12-29T18:47:07.667Z,72.56
2022-12-29T18:50:04.175Z,72.08
2022-12-29T19:01:41.748Z,72.48
2022-12-29T19:04:14.256Z,72.78
2022-12-29T19:07:43.634Z,72.16
2022-12-29T19:11:21.594Z,72.26
2022-12-29T19:13:48.948Z,72.20
2022-12-29T19:16:31.340Z,72.30
2022-12-29T19:19:37.771Z,72.30
2022-12-29T19:22:11.118Z,72.61
2022-12-29T19:25:03.121Z,72.67
2022-12-29T19:27:31.986Z,72.72
2022-12-29T19:30:04.274Z,72.71
2022-12-29T19:32:31.908Z,73.13
2022-12-29T19:35:19.421Z,73.09
2022-12-29T19:38:10.863Z,72.89
2022-12-29T19:45:28.919Z,72.65
2022-12-29T19:48:20.305Z,72.78
2022-12-29T19:50:50.989Z,72.79
2022-12-29T19:53:30.036Z,72.89
2022-12-29T19:56:04.009Z,72.69
2022-12-29T19:58:33.668Z,72.36
2022-12-29T20:01:19.970Z,72.58
2022-12-29T20:03:53.433Z,72.73
2022-12-29T20:06:23.815Z,72.95
2022-12-29T20:30:38.650Z,72.34
2022-12-29T20:40:27.693Z,72.85
2022-12-29T20:49:58.338Z,73.04
2022-12-29T20:52:34.704Z,73.02
2022-12-29T21:00:29.234Z,72.64
2022-12-29T21:16:33.149Z,72.38
2022-12-29T21:24:17.502Z,72.97
2022-12-29T21:35:12.846Z,72.72
2022-12-29T21:38:47.674Z,72.75
2022-12-29T21:45:02.568Z,73.10
2022-12-29T21:48:09.305Z,72.72
2022-12-29T21:51:13.294Z,73.33
2022-12-29T22:07:44.261Z,73.03
2022-12-29T22:14:01.945Z,72.79
2022-12-29T22:17:48.338Z,73.12
2022-12-29T22:20:43.345Z,73.19
2022-12-29T22:26:14.455Z,72.74
2022-12-29T22:29:48.547Z,72.94
2022-12-29T22:37:13.419Z,72.99
2022-12-29T22:41:17.789Z,73.06
2022-12-29T22:44:28.042Z,73.22
2022-12-29T22:48:14.265Z,72.90
2022-12-29T22:51:07.518Z,72.97
2022-12-29T23:09:31.716Z,72.97
2022-12-29T23:12:32.053Z,72.69
2022-12-29T23:15:21.455Z,73.17
2022-12-29T23:18:12.288Z,73.07
2022-12-29T23:20:46.179Z,72.55
2022-12-29T23:24:04.592Z,72.96
2022-12-29T23:26:49.839Z,72.57
2022-12-29T23:29:32.611Z,73.02
2022-12-29T23:40:38.943Z,72.28
2022-12-29T23:43:30.923Z,72.97
2022-12-29T23:46:59.193Z,72.71
2022-12-29T23:49:42.824Z,72.78
2022-12-29T23:52:18.234Z,72.97
2022-12-29T23:59:06.498Z,72.87
